Time;durP1;ratioP1;P1;durP2;ratioP2;P2;SDS_P1;SDS_P2;PMS_P1;PMS_P2;Temp;Humidity;BMP_temperature;BMP_pressure;BME280_temperature;BME280_humidity;BME280_pressure;Samples;Min_cycle;Max_cycle;Signal;HPM_P1;HPM_P2
2021/03/18 00:01:25;;;;;;;9.20;3.42;;;;;;;1.60;83.46;102737.38;5264988;28;19970;-74
2021/03/18 00:03:57;;;;;;;11.15;3.75;;;;;;;1.60;83.22;102741.69;5263337;28;20028;-74
2021/03/18 00:06:29;;;;;;;8.80;3.88;;;;;;;1.54;83.62;102734.03;5261847;28;20063;-73
2021/03/18 00:09:00;;;;;;;8.75;3.47;;;;;;;1.51;83.88;102734.06;5263458;28;20554;-74
2021/03/18 00:11:31;;;;;;;11.45;4.32;;;;;;;1.51;84.50;102724.59;5266943;28;20033;-73
2021/03/18 00:14:03;;;;;;;11.55;4.20;;;;;;;1.41;83.81;102723.91;5260169;28;20075;-72
2021/03/18 00:16:35;;;;;;;14.40;4.80;;;;;;;1.34;83.63;102726.59;5265081;28;20033;-74
2021/03/18 00:19:07;;;;;;;8.98;3.97;;;;;;;1.35;84.24;102728.31;5265497;28;20024;-73
2021/03/18 00:21:39;;;;;;;10.75;4.15;;;;;;;1.29;84.47;102733.56;5266018;28;20370;-73
2021/03/18 00:24:10;;;;;;;12.68;3.97;;;;;;;1.26;84.23;102733.63;5264305;28;20032;-73
2021/03/18 00:26:42;;;;;;;11.85;4.13;;;;;;;1.20;84.44;102725.09;5267781;28;20032;-73
2021/03/18 00:29:13;;;;;;;12.68;3.63;;;;;;;1.18;84.09;102729.44;5264126;28;20032;-73
2021/03/18 00:31:44;;;;;;;9.82;4.22;;;;;;;1.07;84.46;102713.25;5267796;28;20033;-74
2021/03/18 00:34:15;;;;;;;9.18;3.95;;;;;;;1.04;84.72;102723.63;5263957;28;20037;-73
2021/03/18 00:36:47;;;;;;;6.63;3.47;;;;;;;0.94;84.40;102714.28;5262739;28;20021;-73
2021/03/18 00:39:18;;;;;;;9.15;3.17;;;;;;;0.93;84.42;102722.91;5265259;28;20058;-73
2021/03/18 00:41:49;;;;;;;12.75;3.67;;;;;;;0.91;84.97;102711.75;5265419;28;20016;-73
2021/03/18 00:44:21;;;;;;;6.00;2.83;;;;;;;0.85;84.42;102706.69;5263145;28;20052;-73
2021/03/18 00:46:52;;;;;;;6.25;3.13;;;;;;;0.81;84.64;102720.53;5265385;28;20025;-73
2021/03/18 00:49:24;;;;;;;10.15;3.63;;;;;;;0.81;84.91;102715.38;5263493;28;20029;-73
2021/03/18 00:51:55;;;;;;;7.82;3.38;;;;;;;0.79;84.67;102727.41;5263353;28;20036;-72
2021/03/18 00:54:26;;;;;;;13.85;3.13;;;;;;;0.82;85.57;102725.66;5262484;28;20045;-74
2021/03/18 00:56:58;;;;;;;9.25;3.17;;;;;;;0.71;85.05;102723.22;5265005;28;20401;-73
2021/03/18 00:59:29;;;;;;;7.90;3.50;;;;;;;0.69;85.18;102732.72;5261117;28;20033;-73
2021/03/18 01:02:00;;;;;;;8.73;3.40;;;;;;;0.70;85.57;102725.81;5263649;28;20369;-73
2021/03/18 01:04:32;;;;;;;8.63;3.10;;;;;;;0.67;85.05;102726.69;5263809;28;20029;-73
2021/03/18 01:07:03;;;;;;;9.55;2.75;;;;;;;0.69;85.74;102735.28;5262715;28;20032;-73
2021/03/18 01:09:34;;;;;;;11.98;3.53;;;;;;;0.63;85.49;102731.94;5259954;28;20102;-73
2021/03/18 01:12:06;;;;;;;10.43;3.10;;;;;;;0.57;85.91;102722.56;5264905;28;20363;-73
2021/03/18 01:14:37;;;;;;;9.30;2.92;;;;;;;0.58;85.37;102726.84;5266754;28;20437;-73
2021/03/18 01:17:08;;;;;;;6.03;2.42;;;;;;;0.60;85.96;102727.66;5265074;28;20515;-73
2021/03/18 01:19:40;;;;;;;10.00;2.95;;;;;;;0.66;86.32;102722.44;5263527;28;20075;-73
2021/03/18 01:22:11;;;;;;;9.18;2.97;;;;;;;0.65;85.65;102727.63;5266895;28;20511;-73
2021/03/18 01:24:42;;;;;;;7.47;2.88;;;;;;;0.64;85.95;102728.47;5264118;28;20029;-73
2021/03/18 01:27:14;;;;;;;8.85;2.58;;;;;;;0.62;85.46;102732.81;5260286;28;20021;-73
2021/03/18 01:29:45;;;;;;;9.95;3.90;;;;;;;0.62;85.58;102736.25;5265902;28;20028;-73
2021/03/18 01:32:17;;;;;;;10.13;2.47;;;;;;;0.54;85.70;102740.66;5261983;28;20036;-73
2021/03/18 01:34:48;;;;;;;8.38;2.72;;;;;;;0.55;86.35;102732.03;5260309;28;20029;-73
2021/03/18 01:37:23;;;;;;;9.90;2.63;;;;;;;0.56;85.67;102736.31;5267811;28;20567;-73
2021/03/18 01:39:55;;;;;;;6.95;2.38;;;;;;;0.53;86.15;102738.94;5267663;28;20032;-73
2021/03/18 01:42:26;;;;;;;8.17;3.37;;;;;;;0.54;85.86;102735.50;5268032;28;20024;-73
2021/03/18 01:44:58;;;;;;;6.30;2.90;;;;;;;0.46;85.80;102727.00;5269781;28;20039;-73
2021/03/18 01:47:29;;;;;;;9.25;2.40;;;;;;;0.53;85.64;102731.22;5265033;28;20038;-72
2021/03/18 01:50:03;;;;;;;7.32;2.78;;;;;;;0.47;85.32;102723.53;5267005;28;20516;-73
2021/03/18 01:52:36;;;;;;;7.97;3.03;;;;;;;0.44;85.77;102733.88;5267684;28;20119;-73
2021/03/18 01:55:12;;;;;;;7.97;2.40;;;;;;;0.43;85.88;102729.63;5267360;28;20052;-73
2021/03/18 01:57:44;;;;;;;8.00;2.30;;;;;;;0.53;86.37;102733.78;5264635;28;20473;-72
2021/03/18 02:00:16;;;;;;;10.80;2.53;;;;;;;0.42;86.39;102725.34;5264851;28;20033;-73
2021/03/18 02:02:51;;;;;;;9.88;3.35;;;;;;;0.48;85.93;102727.81;5265155;28;20478;-72
2021/03/18 02:05:23;;;;;;;10.70;3.65;;;;;;;0.38;85.83;102723.63;5266139;28;20459;-73
2021/03/18 02:07:56;;;;;;;13.63;3.30;;;;;;;0.39;86.54;102708.16;5268279;28;20056;-73
2021/03/18 02:10:31;;;;;;;12.65;2.80;;;;;;;0.37;86.03;102701.31;5267556;28;20036;-73
2021/03/18 02:13:05;;;;;;;9.40;2.55;;;;;;;0.29;85.71;102688.50;5266504;28;20044;-73
2021/03/18 02:15:45;;;;;;;11.07;2.92;;;;;;;0.36;86.92;102697.03;5268637;28;20085;-73
2021/03/18 02:18:29;;;;;;;14.65;3.17;;;;;;;0.40;87.07;102706.44;5267035;28;20070;-72
2021/03/18 02:21:22;;;;;;;12.40;3.42;;;;;;;0.34;87.16;102698.75;5267167;28;20036;-72
2021/03/18 02:24:17;;;;;;;13.90;3.13;;;;;;;0.34;86.41;102701.34;5268145;28;20103;-73
2021/03/18 02:27:22;;;;;;;10.40;3.13;;;;;;;0.35;85.87;102692.75;5266005;28;20081;-72
2021/03/18 02:30:27;;;;;;;16.02;3.70;;;;;;;0.21;86.21;102677.44;5267767;28;20028;-73
2021/03/18 02:33:14;;;;;;;8.23;3.05;;;;;;;0.36;87.40;102691.88;5267720;28;20025;-73
2021/03/18 02:35:47;;;;;;;7.93;2.78;;;;;;;0.26;86.96;102687.69;5267637;28;20077;-72
2021/03/18 02:38:23;;;;;;;11.32;2.88;;;;;;;0.23;86.55;102689.47;5265976;28;20501;-72
2021/03/18 02:41:02;;;;;;;6.78;3.40;;;;;;;0.24;86.70;102686.00;5266577;28;20033;-73
2021/03/18 02:43:40;;;;;;;8.88;3.42;;;;;;;0.22;86.76;102685.16;5264919;28;20033;-73
2021/03/18 02:46:12;;;;;;;8.82;3.58;;;;;;;0.15;86.62;102683.56;5264670;28;20032;-73
2021/03/18 02:48:45;;;;;;;9.50;3.30;;;;;;;0.14;86.56;102686.97;5261372;28;20025;-73
2021/03/18 02:51:19;;;;;;;12.02;3.85;;;;;;;0.19;87.12;102679.19;5267422;28;20044;-73
2021/03/18 02:53:51;;;;;;;9.90;3.05;;;;;;;0.10;87.26;102671.56;5267648;28;20049;-73
2021/03/18 02:56:23;;;;;;;10.48;3.20;;;;;;;0.04;86.67;102658.75;5267289;28;20127;-73
2021/03/18 02:58:58;;;;;;;10.18;3.88;;;;;;;0.08;87.13;102665.59;5264021;28;20033;-73
2021/03/18 03:01:31;;;;;;;10.93;3.78;;;;;;;0.05;87.24;102650.16;5262577;28;20446;-73
2021/03/18 03:04:03;;;;;;;12.48;3.78;;;;;;;0.05;86.90;102645.88;5263967;28;20029;-73
2021/03/18 03:06:36;;;;;;;10.60;3.47;;;;;;;0.00;86.92;102652.81;5264332;28;20561;-73
2021/03/18 03:09:08;;;;;;;14.00;4.63;;;;;;;0.02;86.60;102643.31;5263297;28;20080;-73
2021/03/18 03:11:41;;;;;;;13.30;4.10;;;;;;;-0.01;87.41;102651.94;5261128;28;20021;-73
2021/03/18 03:14:14;;;;;;;12.18;3.83;;;;;;;0.07;87.74;102646.69;5262156;28;20037;-73
2021/03/18 03:16:45;;;;;;;10.48;4.15;;;;;;;0.09;87.80;102647.53;5266319;28;20570;-73
2021/03/18 03:19:18;;;;;;;11.27;4.57;;;;;;;0.03;86.90;102650.16;5266454;28;20032;-73
2021/03/18 03:21:50;;;;;;;11.93;4.25;;;;;;;0.09;87.09;102660.41;5265696;28;20062;-73
2021/03/18 03:24:23;;;;;;;14.63;4.70;;;;;;;0.09;86.93;102667.31;5262904;28;20032;-73
2021/03/18 03:26:55;;;;;;;14.93;4.70;;;;;;;0.05;86.85;102666.47;5259738;28;20135;-73
2021/03/18 03:29:28;;;;;;;13.23;4.13;;;;;;;-0.03;86.53;102656.25;5263506;28;20146;-73
2021/03/18 03:32:04;;;;;;;11.75;4.40;;;;;;;0.03;86.90;102650.16;5258998;28;20025;-73
2021/03/18 03:34:36;;;;;;;12.95;4.25;;;;;;;-0.01;87.04;102640.78;5266985;28;20052;-73
2021/03/18 03:37:09;;;;;;;12.80;3.95;;;;;;;0.01;87.27;102663.97;5264018;28;20024;-73
2021/03/18 03:39:41;;;;;;;15.25;5.20;;;;;;;-0.05;86.56;102659.72;5263350;28;20410;-73
2021/03/18 03:42:13;;;;;;;12.07;3.78;;;;;;;-0.05;87.07;102658.00;5264145;28;20021;-73
2021/03/18 03:44:44;;;;;;;10.68;4.10;;;;;;;-0.14;86.53;102640.06;5264197;28;20033;-73
2021/03/18 03:47:15;;;;;;;13.85;4.53;;;;;;;-0.07;87.44;102648.59;5263571;28;20039;-73
2021/03/18 03:49:47;;;;;;;7.47;3.45;;;;;;;-0.11;87.83;102634.03;5268139;28;20474;-73
2021/03/18 03:52:33;;;;;;;9.35;4.18;;;;;;;-0.01;87.17;102654.50;5264487;28;20314;-73
2021/03/18 03:55:23;;;;;;;11.65;3.55;;;;;;;-0.03;87.65;102656.25;5266482;28;20060;-73
2021/03/18 03:57:59;;;;;;;11.70;4.55;;;;;;;-0.06;86.74;102658.03;5263671;28;20097;-73
2021/03/18 04:00:31;;;;;;;9.65;3.92;;;;;;;-0.12;86.95;102655.50;5267112;28;20062;-73
2021/03/18 04:03:07;;;;;;;13.67;4.17;;;;;;;-0.17;86.95;102652.13;5259836;28;20053;-73
2021/03/18 04:05:43;;;;;;;12.30;4.20;;;;;;;-0.12;87.21;102673.53;5264733;28;20024;-73
2021/03/18 04:08:16;;;;;;;10.90;4.85;;;;;;;-0.14;87.22;102675.28;5267436;28;20029;-73
2021/03/18 04:10:47;;;;;;;11.63;3.97;;;;;;;-0.07;88.02;102675.19;5265599;28;20039;-73
2021/03/18 04:13:20;;;;;;;11.52;3.55;;;;;;;-0.23;87.35;102659.91;5261736;28;20029;-73
2021/03/18 04:15:51;;;;;;;12.52;4.05;;;;;;;-0.24;87.59;102646.19;5262603;28;20060;-73
2021/03/18 04:18:27;;;;;;;15.40;4.40;;;;;;;-0.25;87.42;102641.91;5263955;28;20036;-73
2021/03/18 04:20:59;;;;;;;17.77;4.63;;;;;;;-0.32;87.04;102627.41;5262248;28;20041;-73
2021/03/18 04:23:31;;;;;;;12.98;4.18;;;;;;;-0.37;86.61;102632.59;5265324;28;20097;-73
2021/03/18 04:26:03;;;;;;;16.97;4.33;;;;;;;-0.42;86.54;102633.50;5264163;28;20035;-73
2021/03/18 04:28:35;;;;;;;14.57;4.93;;;;;;;-0.39;86.95;102629.16;5262113;28;20485;-73
2021/03/18 04:31:07;;;;;;;20.05;6.65;;;;;;;-0.39;88.29;102618.03;5264754;28;20033;-73
2021/03/18 04:33:39;;;;;;;14.90;4.75;;;;;;;-0.40;87.83;102617.19;5263918;28;20028;-73
2021/03/18 04:36:11;;;;;;;12.50;4.35;;;;;;;-0.48;87.26;102618.97;5277002;28;20449;-73
2021/03/18 04:38:43;;;;;;;14.43;4.72;;;;;;;-0.42;88.24;102623.19;5261938;28;20120;-73
2021/03/18 04:41:14;;;;;;;15.13;4.72;;;;;;;-0.46;88.07;102619.81;5262226;28;20475;-73
2021/03/18 04:43:46;;;;;;;18.55;5.00;;;;;;;-0.45;87.92;102615.53;5265939;28;20068;-73
2021/03/18 04:46:19;;;;;;;15.00;5.95;;;;;;;-0.47;88.00;102601.81;5263967;28;20029;-73
2021/03/18 04:48:54;;;;;;;13.80;5.47;;;;;;;-0.42;88.51;102615.47;5264832;28;20582;-73
2021/03/18 04:51:26;;;;;;;10.20;4.63;;;;;;;-0.49;88.33;102614.72;5267361;28;20116;-73
2021/03/18 04:53:59;;;;;;;10.20;4.18;;;;;;;-0.46;87.44;102624.09;5259842;28;20045;-73
2021/03/18 04:56:32;;;;;;;13.82;4.57;;;;;;;-0.58;86.68;102622.50;5265200;28;20040;-73
2021/03/18 04:59:03;;;;;;;11.18;4.40;;;;;;;-0.58;87.25;102601.91;5267655;28;20070;-73
2021/03/18 05:01:36;;;;;;;18.88;5.43;;;;;;;-0.59;87.61;102610.50;5257356;28;20171;-73
2021/03/18 05:04:07;;;;;;;21.95;5.78;;;;;;;-0.65;87.27;102603.69;5260894;28;20032;-72
2021/03/18 05:06:39;;;;;;;17.92;5.15;;;;;;;-0.62;88.07;102621.69;5256231;28;20424;-73
2021/03/18 05:09:12;;;;;;;16.60;6.20;;;;;;;-0.56;88.32;102621.63;5263164;28;20504;-73
2021/03/18 05:11:44;;;;;;;15.63;4.88;;;;;;;-0.58;87.56;102627.66;5263654;28;20540;-73
2021/03/18 05:14:15;;;;;;;15.88;5.20;;;;;;;-0.63;87.62;102632.00;5265902;28;20029;-72
2021/03/18 05:16:48;;;;;;;14.98;4.93;;;;;;;-0.65;87.99;102611.41;5266972;28;20033;-72
2021/03/18 05:19:20;;;;;;;14.82;4.78;;;;;;;-0.61;87.79;102628.53;5267386;28;20040;-73
2021/03/18 05:21:52;;;;;;;17.35;5.18;;;;;;;-0.66;87.41;102620.00;5266935;28;20414;-73
2021/03/18 05:24:24;;;;;;;10.18;4.65;;;;;;;-0.67;88.10;102618.31;5268196;28;20017;-73
2021/03/18 05:26:55;;;;;;;11.75;5.30;;;;;;;-0.65;87.97;102611.41;5268638;28;20040;-73
2021/03/18 05:29:26;;;;;;;10.15;4.82;;;;;;;-0.67;88.71;102595.16;5267828;28;20115;-73
2021/03/18 05:31:57;;;;;;;11.88;5.40;;;;;;;-0.62;88.59;102616.53;5264558;28;20032;-73
2021/03/18 05:34:29;;;;;;;11.52;5.20;;;;;;;-0.61;88.09;102612.22;5264108;28;20111;-72
2021/03/18 05:37:00;;;;;;;15.32;5.55;;;;;;;-0.62;88.66;102598.53;5267457;28;20505;-73
2021/03/18 05:39:31;;;;;;;16.75;5.57;;;;;;;-0.57;88.92;102590.75;5265780;28;20432;-73
2021/03/18 05:42:03;;;;;;;16.05;5.68;;;;;;;-0.52;89.20;102589.84;5268074;28;20021;-73
2021/03/18 05:44:34;;;;;;;13.63;6.88;;;;;;;-0.59;88.94;102584.78;5268045;28;20171;-73
2021/03/18 05:47:06;;;;;;;16.73;5.57;;;;;;;-0.50;89.46;102595.81;5266443;28;20039;-73
2021/03/18 05:49:37;;;;;;;14.88;5.72;;;;;;;-0.49;89.52;102596.69;5267799;28;20025;-73
2021/03/18 05:52:11;;;;;;;17.95;5.90;;;;;;;-0.40;89.44;102604.31;5266631;28;20112;-73
2021/03/18 05:54:46;;;;;;;;;;;;;;;-0.21;88.67;102598.94;5269119;28;21049;-73
2021/03/18 05:57:19;;;;;;;15.93;5.32;;;;;;;-0.32;89.37;102599.06;5265747;28;20335;-73
2021/03/18 05:59:51;;;;;;;17.00;6.35;;;;;;;-0.33;89.58;102582.75;5264709;28;20020;-73
2021/03/18 06:02:22;;;;;;;16.52;5.97;;;;;;;-0.24;90.07;102592.09;5264628;28;20405;-73
2021/03/18 06:04:54;;;;;;;18.20;6.40;;;;;;;-0.19;90.05;102585.19;5267022;28;20032;-73
2021/03/18 06:07:25;;;;;;;12.65;5.70;;;;;;;-0.17;89.71;102580.00;5264628;28;20068;-72
2021/03/18 06:09:57;;;;;;;14.68;5.93;;;;;;;-0.22;90.16;102568.91;5265680;28;20037;-73
2021/03/18 06:12:29;;;;;;;13.65;6.50;;;;;;;-0.12;89.52;102581.63;5270752;28;20128;-73
2021/03/18 06:15:00;;;;;;;20.33;6.45;;;;;;;-0.10;90.05;102579.06;5268941;28;20024;-73
2021/03/18 06:17:32;;;;;;;14.18;5.95;;;;;;;-0.03;89.92;102578.13;5266241;28;20032;-73
2021/03/18 06:20:06;;;;;;;15.63;6.25;;;;;;;-0.01;90.32;102579.78;5261871;28;20035;-72
2021/03/18 06:22:43;;;;;;;14.18;6.15;;;;;;;0.00;89.91;102570.34;5265296;28;20029;-72
2021/03/18 06:25:28;;;;;;;25.02;6.72;;;;;;;0.03;89.76;102578.03;5271756;28;20020;-72
2021/03/18 06:28:15;;;;;;;17.70;7.03;;;;;;;0.10;90.29;102571.06;5265391;28;20029;-72
2021/03/18 06:31:06;;;;;;;16.08;8.00;;;;;;;0.14;89.98;102570.16;5270525;28;20470;-72
2021/03/18 06:33:42;;;;;;;17.25;7.20;;;;;;;0.17;90.60;102560.66;5268864;28;20496;-71
2021/03/18 06:36:19;;;;;;;18.08;7.55;;;;;;;0.21;90.23;102553.72;5274364;28;20743;-72
2021/03/18 06:39:07;;;;;;;18.45;7.57;;;;;;;0.22;90.61;102548.53;5267120;28;20039;-72
2021/03/18 06:41:42;;;;;;;18.05;7.75;;;;;;;0.20;90.13;102537.41;5275508;28;20059;-72
2021/03/18 06:44:24;;;;;;;20.10;7.63;;;;;;;0.31;90.01;102536.41;5261559;28;20050;-71
2021/03/18 06:47:05;;;;;;;20.27;8.60;;;;;;;0.35;90.84;102535.50;5268930;28;20029;-72
2021/03/18 06:49:37;;;;;;;18.38;7.40;;;;;;;0.34;91.23;102529.50;5272826;28;20036;-71
2021/03/18 06:52:11;;;;;;;20.95;7.50;;;;;;;0.38;90.93;102535.44;5269957;28;20039;-72
2021/03/18 06:54:45;;;;;;;16.85;7.18;;;;;;;0.45;90.68;102532.72;5273232;28;20040;-71
2021/03/18 06:57:19;;;;;;;19.67;8.43;;;;;;;0.46;90.44;102528.47;5274777;28;20024;-73
2021/03/18 06:59:50;;;;;;;21.52;8.93;;;;;;;0.56;91.03;102542.88;5261683;28;20033;-72
2021/03/18 07:02:22;;;;;;;19.42;7.45;;;;;;;0.64;91.27;102530.72;5263847;28;20089;-73
2021/03/18 07:04:55;;;;;;;24.88;8.57;;;;;;;0.64;91.33;102520.41;5260503;28;20036;-73
2021/03/18 07:07:26;;;;;;;25.02;8.05;;;;;;;0.78;91.06;102540.81;5264164;28;20036;-72
2021/03/18 07:09:58;;;;;;;24.88;8.63;;;;;;;0.86;91.21;102538.09;5265764;28;20081;-72
2021/03/18 07:12:31;;;;;;;17.58;7.63;;;;;;;0.86;90.67;102536.38;5264470;28;20029;-73
2021/03/18 07:15:16;;;;;;;22.30;7.32;;;;;;;0.94;90.72;102526.75;5265420;28;20036;-72
2021/03/18 07:18:01;;;;;;;19.00;8.15;;;;;;;1.01;90.91;102521.50;5261969;28;20071;-72
2021/03/18 07:20:33;;;;;;;19.48;8.15;;;;;;;1.04;90.73;102524.88;5264607;28;20024;-72
2021/03/18 07:23:16;;;;;;;25.55;9.85;;;;;;;1.05;90.17;102523.16;5264972;28;20086;-72
2021/03/18 07:25:47;;;;;;;19.92;8.05;;;;;;;1.07;90.45;102521.41;5266706;28;20485;-72
2021/03/18 07:28:23;;;;;;;23.35;9.68;;;;;;;1.15;90.51;102522.13;5268088;28;20029;-72
2021/03/18 07:30:55;;;;;;;24.80;8.63;;;;;;;1.12;90.13;102515.25;5263859;28;20033;-72
2021/03/18 07:33:27;;;;;;;21.45;9.55;;;;;;;1.19;90.43;102524.59;5263195;28;20028;-72
2021/03/18 07:36:00;;;;;;;23.88;8.75;;;;;;;1.30;90.74;102520.97;5259064;28;20035;-72
2021/03/18 07:38:31;;;;;;;17.67;8.77;;;;;;;1.35;90.29;102522.56;5262083;28;20123;-72
2021/03/18 07:41:11;;;;;;;20.58;8.73;;;;;;;1.36;89.64;102523.41;5266076;28;20115;-71
2021/03/18 07:43:44;;;;;;;19.33;9.93;;;;;;;1.45;90.63;102523.25;5263650;28;20024;-71
2021/03/18 07:46:20;;;;;;;20.42;9.68;;;;;;;1.54;90.60;102512.72;5265557;28;20505;-71
2021/03/18 07:48:56;;;;;;;20.80;10.75;;;;;;;1.61;90.19;102514.31;5266238;28;20033;-72
2021/03/18 07:51:30;;;;;;;24.17;11.05;;;;;;;1.64;90.46;102509.09;5264957;28;20482;-72
2021/03/18 07:54:02;;;;;;;21.08;10.77;;;;;;;1.73;90.09;102507.19;5266835;28;20265;-72
2021/03/18 07:56:34;;;;;;;26.13;11.38;;;;;;;1.79;90.19;102501.91;5263626;28;20032;-72
2021/03/18 07:59:07;;;;;;;20.83;10.57;;;;;;;1.89;89.72;102500.78;5261890;28;20216;-72
2021/03/18 08:01:40;;;;;;;21.15;10.05;;;;;;;1.96;89.90;102504.94;5266544;28;20504;-71
2021/03/18 08:04:14;;;;;;;22.20;10.20;;;;;;;2.02;89.23;102514.31;5263427;28;20017;-71
2021/03/18 08:06:46;;;;;;;;;;;;;;;2.21;89.07;102519.94;5268811;28;20036;-71
2021/03/18 08:09:26;;;;;;;20.05;8.95;;;;;;;2.26;89.15;102525.81;5263601;28;19912;-71
2021/03/18 08:11:57;;;;;;;20.80;9.85;;;;;;;2.32;88.98;102511.03;5263814;28;20033;-71
2021/03/18 08:14:29;;;;;;;20.25;9.57;;;;;;;2.40;88.89;102518.59;5262781;28;20059;-71
2021/03/18 08:17:00;;;;;;;19.85;8.75;;;;;;;2.46;88.69;102523.59;5257677;28;20064;-71
2021/03/18 08:19:40;;;;;;;15.73;8.05;;;;;;;2.53;88.05;102535.50;5259385;28;20037;-71
2021/03/18 08:22:27;;;;;;;20.48;8.00;;;;;;;2.62;88.32;102540.47;5263015;28;20024;-71
2021/03/18 08:25:20;;;;;;;15.65;7.55;;;;;;;2.72;87.74;102537.66;5257094;28;20124;-71
2021/03/18 08:27:52;;;;;;;18.00;7.35;;;;;;;2.74;87.19;102536.75;5256926;28;20374;-71
2021/03/18 08:30:24;;;;;;;17.83;7.68;;;;;;;2.80;87.02;102538.31;5258086;28;20028;-72
2021/03/18 08:32:56;;;;;;;18.25;8.07;;;;;;;2.86;87.57;102533.00;5256493;28;20087;-72
2021/03/18 08:35:28;;;;;;;16.63;7.18;;;;;;;2.81;86.97;102527.94;5259162;28;20060;-72
2021/03/18 08:38:16;;;;;;;22.10;8.05;;;;;;;2.96;87.21;102536.22;5262055;28;20434;-72
2021/03/18 08:41:01;;;;;;;20.52;8.77;;;;;;;3.01;87.17;102537.78;5259549;28;20024;-72
2021/03/18 08:43:32;;;;;;;20.45;7.93;;;;;;;2.96;85.90;102531.88;5252957;28;20104;-72
2021/03/18 08:46:03;;;;;;;15.43;7.80;;;;;;;3.05;86.34;102529.03;5259642;28;20593;-72
2021/03/18 08:48:35;;;;;;;20.83;8.73;;;;;;;3.13;86.56;102531.41;5246471;28;20025;-74
2021/03/18 08:51:06;;;;;;;14.88;8.68;;;;;;;3.17;86.72;102531.28;5255209;28;20118;-74
2021/03/18 08:53:43;;;;;;;17.05;8.40;;;;;;;3.27;86.53;102531.91;5266003;22;20037;-74
2021/03/18 08:56:15;;;;;;;18.83;8.77;;;;;;;3.32;85.86;102527.44;5276565;28;20436;-74
2021/03/18 08:58:47;;;;;;;15.70;8.15;;;;;;;3.39;85.70;102536.75;5248757;28;20090;-74
2021/03/18 09:01:20;;;;;;;14.27;7.47;;;;;;;3.46;85.59;102532.25;5251015;28;20013;-74
2021/03/18 09:03:56;;;;;;;19.10;8.65;;;;;;;3.57;85.08;102529.38;5268317;28;20111;-74
2021/03/18 09:06:31;;;;;;;14.70;8.32;;;;;;;3.66;85.28;102523.91;5277870;28;20074;-74
2021/03/18 09:09:03;;;;;;;16.00;8.13;;;;;;;3.78;85.21;102520.09;5278576;28;20024;-74
2021/03/18 09:11:35;;;;;;;16.10;8.57;;;;;;;3.81;84.25;102514.84;5277500;28;20020;-74
2021/03/18 09:14:07;;;;;;;17.43;8.13;;;;;;;3.95;84.42;102523.06;5278981;28;20111;-74
2021/03/18 09:16:39;;;;;;;16.55;7.53;;;;;;;4.02;83.83;102526.31;5279245;28;20155;-74
2021/03/18 09:19:10;;;;;;;20.60;7.75;;;;;;;4.09;83.53;102535.59;5262337;28;20028;-74
2021/03/18 09:21:43;;;;;;;18.77;6.38;;;;;;;4.09;84.01;102523.50;5277045;28;20024;-74
2021/03/18 09:24:15;;;;;;;15.32;7.03;;;;;;;4.23;82.35;102517.00;5278451;28;20036;-74
2021/03/18 09:26:46;;;;;;;18.48;6.78;;;;;;;4.29;83.04;102524.63;5279384;28;20036;-74
2021/03/18 09:29:26;;;;;;;17.70;5.88;;;;;;;4.41;83.58;102515.59;5274970;28;20922;-74
2021/03/18 09:32:08;;;;;;;15.23;6.38;;;;;;;4.41;81.78;102502.63;5276442;28;20021;-74
2021/03/18 09:34:42;;;;;;;19.30;5.88;;;;;;;4.55;81.85;102514.25;5274047;28;20032;-74
2021/03/18 09:37:13;;;;;;;12.38;5.32;;;;;;;4.61;81.72;102508.84;5279036;28;20017;-74
2021/03/18 09:39:48;;;;;;;18.25;5.45;;;;;;;4.72;81.59;102512.81;5263257;28;20032;-75
2021/03/18 09:42:20;;;;;;;13.65;5.60;;;;;;;4.73;82.39;102493.75;5275270;28;20082;-75
2021/03/18 09:44:53;;;;;;;13.95;5.18;;;;;;;4.83;81.31;102495.13;5278250;28;20570;-75
2021/03/18 09:47:25;;;;;;;15.70;5.72;;;;;;;4.93;81.76;102495.69;5261745;28;20070;-74
2021/03/18 09:49:57;;;;;;;13.63;5.68;;;;;;;4.99;80.40;102498.91;5278583;28;20107;-74
2021/03/18 09:52:29;;;;;;;16.20;5.97;;;;;;;5.03;81.24;102482.28;5277730;28;20029;-75
2021/03/18 09:55:10;;;;;;;16.85;5.28;;;;;;;5.21;80.37;102492.94;5276459;28;20136;-75
2021/03/18 09:57:42;;;;;;;12.57;5.22;;;;;;;5.22;79.30;102494.63;5278749;28;20024;-75
2021/03/18 10:00:14;;;;;;;14.50;5.82;;;;;;;5.37;80.92;102488.88;5280869;28;20013;-75
2021/03/18 10:02:47;;;;;;;13.80;6.05;;;;;;;5.43;78.83;102477.44;5281883;28;20046;-75
2021/03/18 10:05:22;;;;;;;19.05;6.65;;;;;;;5.55;79.65;102488.22;5263448;28;20032;-75
2021/03/18 10:07:57;;;;;;;16.25;5.30;;;;;;;5.68;79.42;102485.13;5269241;28;20039;-75
2021/03/18 10:10:30;;;;;;;26.35;6.40;;;;;;;5.67;77.56;102475.66;5282391;28;20069;-76
2021/03/18 10:13:02;;;;;;;;;;;;;;;5.86;80.25;102474.03;5278493;28;20107;-75
2021/03/18 10:15:33;;;;;;;18.42;6.38;;;;;;;5.80;79.66;102469.09;5281306;28;20443;-76
2021/03/18 10:18:05;;;;;;;21.45;6.68;;;;;;;5.80;77.45;102464.72;5282361;28;20021;-75
2021/03/18 10:20:36;;;;;;;14.30;6.00;;;;;;;5.77;76.74;102469.19;5279551;28;20056;-75
2021/03/18 10:23:12;;;;;;;21.00;7.03;;;;;;;5.78;78.26;102460.47;5281542;28;20190;-75
2021/03/18 10:25:43;;;;;;;21.42;7.00;;;;;;;5.69;77.37;102450.44;5281380;28;20047;-75
2021/03/18 10:28:15;;;;;;;23.48;7.20;;;;;;;5.64;78.23;102441.97;5276916;28;20060;-76
2021/03/18 10:30:49;;;;;;;25.98;7.38;;;;;;;5.71;78.01;102457.28;5262955;28;20115;-75
2021/03/18 10:33:25;;;;;;;19.77;6.78;;;;;;;5.67;78.78;102444.44;5279876;28;20756;-74
2021/03/18 10:36:03;;;;;;;19.10;6.95;;;;;;;5.68;79.79;102453.94;5264360;28;20037;-75
2021/03/18 10:38:40;;;;;;;19.60;6.22;;;;;;;5.61;77.79;102451.59;5249473;28;20545;-75
2021/03/18 10:41:14;;;;;;;20.67;6.63;;;;;;;5.61;77.94;102451.59;5259777;28;20048;-75
2021/03/18 10:43:47;;;;;;;18.65;6.47;;;;;;;5.65;78.51;102452.31;5260296;28;20492;-75
2021/03/18 10:46:33;;;;;;;18.98;6.63;;;;;;;5.63;78.37;102435.91;5269637;28;20033;-75
2021/03/18 10:49:05;;;;;;;21.00;6.72;;;;;;;5.57;79.56;102442.22;5258703;28;20048;-75
2021/03/18 10:51:47;;;;;;;15.48;6.28;;;;;;;5.59;79.92;102440.38;5278618;28;20028;-75
2021/03/18 10:54:23;;;;;;;22.77;7.03;;;;;;;5.53;80.33;102439.75;5273962;28;20047;-75
2021/03/18 10:57:01;;;;;;;21.70;7.80;;;;;;;5.56;81.05;102439.66;5260783;28;20641;-75
2021/03/18 10:59:33;;;;;;;26.58;7.78;;;;;;;5.51;82.46;102446.78;5276111;28;20028;-75
2021/03/18 11:02:05;;;;;;;29.08;8.65;;;;;;;5.53;81.32;102440.63;5280273;28;20162;-75
2021/03/18 11:04:57;;;;;;;23.65;8.10;;;;;;;5.65;82.41;102436.72;5269892;28;20047;-75
2021/03/18 11:07:29;;;;;;;26.48;8.50;;;;;;;5.60;82.25;102434.28;5278831;28;20027;-75
2021/03/18 11:10:14;;;;;;;25.70;9.32;;;;;;;5.67;83.15;102429.69;5278261;28;20039;-75
2021/03/18 11:13:04;;;;;;;19.60;8.40;;;;;;;5.66;83.16;102428.00;5279961;28;20028;-75
2021/03/18 11:16:05;;;;;;;24.00;9.07;;;;;;;5.70;82.56;102432.19;5272938;28;20424;-75
2021/03/18 11:18:42;;;;;;;22.17;9.35;;;;;;;5.56;82.40;102424.06;5263487;28;20032;-75
2021/03/18 11:21:34;;;;;;;26.40;10.27;;;;;;;5.66;82.80;102429.75;5276483;28;20486;-75
2021/03/18 11:24:16;;;;;;;21.33;9.77;;;;;;;5.69;83.17;102424.44;5279411;28;20051;-74
2021/03/18 11:26:59;;;;;;;26.60;9.38;;;;;;;5.77;82.34;102422.38;5280909;28;20020;-77
2021/03/18 11:29:32;;;;;;;;;;;;;;;5.91;81.68;102425.31;5280992;28;20043;-75
2021/03/18 11:32:06;;;;;;;30.98;9.93;;;;;;;5.76;84.04;102429.34;5265437;28;20163;-76
2021/03/18 11:34:40;;;;;;;28.60;12.02;;;;;;;5.67;82.28;102426.25;5268466;28;20416;-76
2021/03/18 11:37:12;;;;;;;28.23;12.00;;;;;;;5.75;83.68;102419.84;5278814;28;20401;-76
2021/03/18 11:39:44;;;;;;;24.35;10.65;;;;;;;5.76;83.64;102412.91;5280165;28;20115;-75
2021/03/18 11:42:15;;;;;;;27.77;10.50;;;;;;;5.76;83.93;102411.16;5279793;28;20529;-75
2021/03/18 11:44:47;;;;;;;23.02;10.50;;;;;;;5.78;84.33;102416.28;5262314;28;20473;-75
2021/03/18 11:47:18;;;;;;;27.27;10.85;;;;;;;5.68;83.46;102417.53;5266451;28;20531;-76
2021/03/18 11:49:49;;;;;;;31.88;11.63;;;;;;;5.67;83.66;102411.50;5279529;28;20123;-76
2021/03/18 11:52:21;;;;;;;23.65;11.30;;;;;;;5.70;83.25;102421.78;5279325;28;20036;-76
2021/03/18 11:54:52;;;;;;;27.15;12.32;;;;;;;5.75;83.51;102414.63;5276798;28;20041;-76
2021/03/18 11:57:23;;;;;;;25.25;12.18;;;;;;;5.80;83.58;102414.47;5279792;28;20119;-76